Philadelphia International Airport
KPHL : now visible

Airfield :











YOU CAN JOIN US ON...

 
LOGIN :

Register | Disclaimer

   EN    FR    IT 

 









Legend :    VFR   Marginal VFR   IFR   Intensive IFR   Very Intensive IFR
Visi :
Ceiling :
>= 8 km
>= 3000ft
5 to 8 km
1000 to 3000 ft
1500m to 5 km
500 to 1000 ft
800 to 1500m
200 to 500 ft
< 800m
< 200 ft
Symbols :   Thunderstorms  Fog  Heavy snow  Heavy precipitations  Wind > 20 kt






- Airport Elevation : 36 ft
- IATA code : PHL


KPHL - Philadelphia International

CURRENT METAR :
  • 081854Z 29012G19KT 10SM SCT055 22/08 A2956 RMK AO2 SLP008 T02220083

EXPIRED METARs :
  • 081754Z 29015KT 10SM SCT050 22/09 A2956 RMK AO2 SLP010 T02220089 10222 20139 55003
  • 081654Z 31011KT 10SM SCT043 21/09 A2956 RMK AO2 SLP008 T02060094

TAF KPHL
Valid from the 08 at 18:00 until the 10 at 00:00 UTC


081730Z 0818/0924 31010G17KT P6SM FEW050
FM090000 VRB03KT P6SM FEW200
FM090800 VRB03KT 3SM BR SCT005
FM091200 19009KT P6SM VCSH BKN040
FM091600 26016G33KT 4SM SHRA OVC025
FM091900 30018G38KT P6SM BKN050



MET'MAP, your aeronautical weather chart ! - Copyright ORBIFLY December 2007 - Disclaimer

ORBIFLY MET'MAP TEAM :

Programming & Development : Alexandra Zaïnal
Concept & original design : Baudouin d'Aumeries
Assistance for programming : Marc-Olivier Méhu
Technical & hardware support : Manuel Goepfert

Contact : metmap@orbifly.com




SOURCES & CREDITS :

   NOAA       Earth
Advisory